Time;durP1;ratioP1;P1;durP2;ratioP2;P2;SDS_P1;SDS_P2;PMS_P1;PMS_P2;Temp;Humidity;BMP_temperature;BMP_pressure;BME280_temperature;BME280_humidity;BME280_pressure;Samples;Min_cycle;Max_cycle;Signal;HPM_P1;HPM_P2
2023/05/10 00:00:59;;;;;;;6.17;5.57;;;;;;;11.19;100.00;147899.06;5111600;28;20222;-49
2023/05/10 00:03:26;;;;;;;10.40;6.10;;;;;;;11.13;100.00;147885.25;5111420;28;20211;-46
2023/05/10 00:05:53;;;;;;;7.07;5.27;;;;;;;11.14;100.00;147887.75;5111244;28;20281;-47
2023/05/10 00:08:20;;;;;;;5.60;5.00;;;;;;;11.11;100.00;147878.94;5111650;28;20596;-49
2023/05/10 00:10:47;;;;;;;5.67;5.17;;;;;;;11.03;100.00;147858.81;5108789;28;20259;-49
2023/05/10 00:13:15;;;;;;;5.90;5.33;;;;;;;11.03;100.00;147858.81;5111419;28;20223;-46
2023/05/10 00:15:42;;;;;;;5.63;5.10;;;;;;;11.07;100.00;147870.13;5111373;28;20218;-48
2023/05/10 00:18:09;;;;;;;6.57;5.90;;;;;;;11.06;100.00;147866.38;5111076;28;20194;-47
2023/05/10 00:20:36;;;;;;;7.20;6.17;;;;;;;11.04;100.00;147862.59;5111308;28;20198;-46
2023/05/10 00:23:03;;;;;;;8.37;5.73;;;;;;;11.04;100.00;147862.59;5110938;28;20194;-48
2023/05/10 00:25:30;;;;;;;8.23;5.73;;;;;;;10.95;100.00;147838.72;5111282;28;20715;-49
2023/05/10 00:27:57;;;;;;;7.27;5.60;;;;;;;10.98;100.00;147847.50;5111169;28;20581;-47
2023/05/10 00:30:25;;;;;;;8.47;6.17;;;;;;;11.01;100.00;147855.03;5110894;28;20618;-46
2023/05/10 00:32:52;;;;;;;5.70;5.20;;;;;;;11.02;100.00;147856.31;5110744;28;20598;-45
2023/05/10 00:35:19;;;;;;;8.97;5.63;;;;;;;10.87;100.00;147821.06;5110707;28;20199;-47
2023/05/10 00:37:46;;;;;;;6.43;5.73;;;;;;;10.93;100.00;147833.69;5111156;28;20202;-46
2023/05/10 00:40:14;;;;;;;6.83;5.80;;;;;;;10.91;100.00;147831.16;5111135;28;20592;-47
2023/05/10 00:42:41;;;;;;;6.77;5.53;;;;;;;10.93;100.00;147833.69;5110854;28;20197;-48
2023/05/10 00:45:08;;;;;;;7.27;5.80;;;;;;;10.89;100.00;147826.13;5107947;28;20578;-48
2023/05/10 00:47:36;;;;;;;9.10;6.37;;;;;;;10.83;100.00;147811.03;5110480;28;20224;-47
2023/05/10 00:50:05;;;;;;;7.97;5.97;;;;;;;10.79;100.00;147800.97;5110755;28;20205;-47
2023/05/10 00:52:32;;;;;;;7.70;6.77;;;;;;;10.81;100.00;147806.00;5110659;28;20210;-47
2023/05/10 00:54:59;;;;;;;8.90;6.63;;;;;;;10.80;100.00;147803.50;5110750;28;20566;-47
2023/05/10 00:57:26;;;;;;;7.30;5.93;;;;;;;10.84;100.00;147813.53;5110275;28;20202;-46
2023/05/10 00:59:53;;;;;;;7.70;6.43;;;;;;;10.79;100.00;147800.97;5111081;28;20205;-47
2023/05/10 01:02:20;;;;;;;13.47;7.10;;;;;;;10.77;100.00;147794.66;5110485;28;20221;-47
2023/05/10 01:04:49;;;;;;;9.73;7.00;;;;;;;10.69;100.00;147775.81;5109377;28;20201;-49
2023/05/10 01:07:16;;;;;;;8.03;6.50;;;;;;;10.67;100.00;147770.78;5110322;28;20230;-49
2023/05/10 01:09:43;;;;;;;9.73;6.73;;;;;;;10.68;100.00;147772.03;5110371;28;20199;-47
2023/05/10 01:12:10;;;;;;;12.43;8.07;;;;;;;10.67;100.00;147770.78;5109918;28;20222;-47
2023/05/10 01:14:37;;;;;;;8.83;7.17;;;;;;;10.72;100.00;147783.34;5110052;28;20199;-47
2023/05/10 01:17:06;;;;;;;8.53;7.30;;;;;;;10.69;100.00;147775.81;5110255;28;20702;-47
2023/05/10 01:19:37;;;;;;;11.50;7.00;;;;;;;10.65;100.00;147765.75;5109499;28;20222;-47
2023/05/10 01:22:15;;;;;;;12.70;8.50;;;;;;;10.63;100.00;147760.72;5109219;28;20229;-46
2023/05/10 01:25:20;;;;;;;11.20;9.93;;;;;;;10.53;100.00;147735.56;5109376;28;20538;-46
2023/05/10 01:28:06;;;;;;;13.73;10.23;;;;;;;10.55;100.00;147741.88;5100998;28;20332;-46
2023/05/10 01:31:15;;;;;;;15.73;9.43;;;;;;;10.53;100.00;147736.81;5107726;28;20194;-46
2023/05/10 01:33:52;;;;;;;14.67;9.93;;;;;;;10.48;100.00;147723.03;5019206;28;20815;-47
2023/05/10 01:36:27;;;;;;;13.03;10.10;;;;;;;10.53;100.00;147736.81;5017622;28;20201;-45
2023/05/10 01:39:02;;;;;;;10.97;9.70;;;;;;;10.50;100.00;147729.28;5068465;28;20213;-48
2023/05/10 01:41:37;;;;;;;13.27;9.60;;;;;;;10.45;100.00;147716.72;5106950;28;20194;-49
2023/05/10 01:44:16;;;;;;;15.40;9.60;;;;;;;10.48;100.00;147723.03;5109918;28;20658;-48
2023/05/10 01:46:43;;;;;;;10.00;9.00;;;;;;;10.50;100.00;147728.00;5109881;28;20244;-48
2023/05/10 01:49:24;;;;;;;10.27;9.27;;;;;;;10.48;100.00;147724.28;5106833;28;20209;-49
2023/05/10 01:51:55;;;;;;;11.60;8.40;;;;;;;10.47;100.00;147721.75;5106911;28;20194;-46
2023/05/10 01:54:25;;;;;;;10.03;9.03;;;;;;;10.48;100.00;147723.03;5109653;28;20198;-49
2023/05/10 01:57:00;;;;;;;9.03;7.20;;;;;;;10.45;100.00;147715.47;5107206;28;20606;-46
2023/05/10 01:59:31;;;;;;;12.20;8.13;;;;;;;10.39;100.00;147701.59;5109501;28;20190;-49
2023/05/10 02:02:00;;;;;;;10.13;8.43;;;;;;;10.40;100.00;147702.88;5109194;28;20282;-49
2023/05/10 02:04:29;;;;;;;11.37;8.83;;;;;;;10.39;100.00;147700.34;5109145;28;20194;-47
2023/05/10 02:06:57;;;;;;;12.10;9.10;;;;;;;10.38;100.00;147697.88;5109318;28;20190;-47
2023/05/10 02:09:26;;;;;;;12.17;8.67;;;;;;;10.39;100.00;147701.59;5109471;28;20202;-46
2023/05/10 02:11:55;;;;;;;10.87;8.60;;;;;;;10.40;100.00;147704.13;5109237;28;20186;-47
2023/05/10 02:14:24;;;;;;;11.70;8.53;;;;;;;10.39;100.00;147701.59;5109189;28;20275;-47
2023/05/10 02:16:53;;;;;;;11.23;8.27;;;;;;;10.41;100.00;147705.38;5106568;28;20194;-47
2023/05/10 02:19:21;;;;;;;9.63;8.60;;;;;;;10.44;100.00;147712.94;5109488;28;20795;-49
2023/05/10 02:21:51;;;;;;;11.07;8.40;;;;;;;10.41;100.00;147705.38;5109284;28;20272;-46
2023/05/10 02:24:20;;;;;;;8.87;7.93;;;;;;;10.43;100.00;147710.44;5109245;28;20187;-46
2023/05/10 02:26:49;;;;;;;8.47;7.67;;;;;;;10.46;100.00;147717.97;5109483;28;20194;-50
2023/05/10 02:29:17;;;;;;;9.27;7.50;;;;;;;10.46;100.00;147717.97;5109134;28;20194;-47
2023/05/10 02:31:45;;;;;;;10.77;7.73;;;;;;;10.47;100.00;147721.75;5109026;28;20682;-48
2023/05/10 02:34:13;;;;;;;14.07;8.07;;;;;;;10.51;100.00;147731.78;5109175;28;20701;-50
2023/05/10 02:36:42;;;;;;;9.90;7.73;;;;;;;10.38;100.00;147697.88;5109164;28;20195;-49
2023/05/10 02:39:12;;;;;;;8.90;7.37;;;;;;;10.44;100.00;147712.94;5106406;28;20201;-49
2023/05/10 02:41:41;;;;;;;9.37;7.00;;;;;;;10.39;100.00;147700.34;5109219;28;20213;-47
2023/05/10 02:44:10;;;;;;;14.57;7.70;;;;;;;10.34;100.00;147687.81;5108671;28;20248;-46
2023/05/10 02:46:37;;;;;;;10.40;7.23;;;;;;;10.33;100.00;147686.53;5109003;28;20191;-47
2023/05/10 02:49:04;;;;;;;9.37;8.13;;;;;;;10.34;100.00;147689.06;5108834;28;20690;-48
2023/05/10 02:51:35;;;;;;;12.83;7.77;;;;;;;10.19;100.00;147651.34;5108928;28;20250;-47
2023/05/10 02:54:10;;;;;;;10.00;7.70;;;;;;;10.25;100.00;147665.19;5108976;28;20686;-47
2023/05/10 02:56:43;;;;;;;12.00;8.53;;;;;;;10.23;100.00;147661.41;5107045;28;20587;-46
2023/05/10 02:59:10;;;;;;;9.53;8.07;;;;;;;10.28;100.00;147673.94;5106371;28;20199;-48
2023/05/10 03:01:37;;;;;;;10.30;8.43;;;;;;;10.25;100.00;147665.19;5108937;28;20195;-48
2023/05/10 03:04:05;;;;;;;10.83;8.00;;;;;;;10.20;100.00;147653.84;5108835;28;20223;-47
2023/05/10 03:06:34;;;;;;;11.10;8.93;;;;;;;10.23;100.00;147660.16;5108663;28;20198;-48
2023/05/10 03:09:03;;;;;;;14.53;11.17;;;;;;;10.15;100.00;147641.25;5108675;28;20572;-49
2023/05/10 03:11:43;;;;;;;12.07;9.80;;;;;;;10.11;100.00;147631.19;5105945;28;20199;-46
2023/05/10 03:14:26;;;;;;;16.57;11.73;;;;;;;10.17;100.00;147647.50;5106157;28;20222;-48
2023/05/10 03:16:58;;;;;;;12.00;9.20;;;;;;;10.14;100.00;147640.00;5106387;28;20201;-46
2023/05/10 03:19:38;;;;;;;10.87;8.97;;;;;;;10.12;100.00;147634.97;5108297;28;20198;-47
2023/05/10 03:22:11;;;;;;;10.60;8.83;;;;;;;10.16;100.00;147643.72;5108099;28;20201;-47
2023/05/10 03:24:42;;;;;;;15.07;10.13;;;;;;;10.08;100.00;147624.88;5107969;28;20195;-49
2023/05/10 03:27:11;;;;;;;13.60;8.60;;;;;;;10.05;100.00;147617.34;5108132;28;20700;-49
2023/05/10 03:29:40;;;;;;;15.17;9.33;;;;;;;10.05;100.00;147616.06;5111350;28;20199;-48
2023/05/10 03:32:07;;;;;;;10.60;9.27;;;;;;;10.09;100.00;147627.41;5107897;28;20205;-47
2023/05/10 03:34:34;;;;;;;14.50;9.67;;;;;;;10.12;100.00;147634.97;5110874;28;20306;-48
2023/05/10 03:37:01;;;;;;;13.73;10.03;;;;;;;10.15;100.00;147642.53;5112601;28;20290;-46
2023/05/10 03:39:28;;;;;;;13.13;9.23;;;;;;;10.18;100.00;147650.06;5111933;28;20191;-46
2023/05/10 03:41:54;;;;;;;12.57;8.57;;;;;;;10.18;100.00;147650.06;5112796;28;20226;-48
2023/05/10 03:44:23;;;;;;;9.53;8.53;;;;;;;10.22;100.00;147658.88;5113357;28;20736;-48
2023/05/10 03:46:50;;;;;;;12.00;9.03;;;;;;;10.29;100.00;147675.22;5112646;28;20290;-49
2023/05/10 03:49:17;;;;;;;11.00;8.87;;;;;;;10.32;100.00;147682.75;5112771;28;20187;-48
2023/05/10 03:51:43;;;;;;;16.70;9.73;;;;;;;10.37;100.00;147696.63;5113110;28;20589;-49
2023/05/10 03:54:10;;;;;;;20.13;9.63;;;;;;;10.31;100.00;147680.25;5113254;28;20759;-50
2023/05/10 03:56:37;;;;;;;11.33;8.70;;;;;;;10.33;100.00;147685.28;5113225;28;20212;-53
2023/05/10 03:59:07;;;;;;;13.63;8.43;;;;;;;10.33;100.00;147685.28;5112399;28;20194;-47
2023/05/10 04:01:35;;;;;;;15.27;9.00;;;;;;;10.40;100.00;147704.13;5112665;28;20198;-51
2023/05/10 04:04:02;;;;;;;12.80;8.90;;;;;;;10.61;100.00;147755.66;5112634;28;20319;-47
2023/05/10 04:06:29;;;;;;;12.50;8.60;;;;;;;10.85;100.00;147816.03;5112871;28;20692;-46
2023/05/10 04:08:56;;;;;;;14.07;10.10;;;;;;;10.85;100.00;147816.03;5112765;28;20850;-47
2023/05/10 04:11:24;;;;;;;16.13;8.93;;;;;;;10.88;100.00;147823.59;5112756;28;20199;-48
2023/05/10 04:13:51;;;;;;;17.20;10.37;;;;;;;10.93;100.00;147833.69;5112310;28;20219;-46
2023/05/10 04:16:18;;;;;;;11.40;9.23;;;;;;;10.99;100.00;147848.75;5112758;28;20205;-48
2023/05/10 04:18:46;;;;;;;9.07;8.17;;;;;;;11.00;100.00;147852.53;5111517;28;20194;-46
2023/05/10 04:21:13;;;;;;;9.43;8.37;;;;;;;10.97;100.00;147844.97;5112716;28;20217;-48
2023/05/10 04:23:40;;;;;;;10.20;8.67;;;;;;;11.01;100.00;147855.03;5112620;28;20281;-46
2023/05/10 04:26:07;;;;;;;11.90;10.00;;;;;;;10.86;100.00;147818.56;5112431;28;20198;-47
2023/05/10 04:28:35;;;;;;;12.93;9.37;;;;;;;10.87;100.00;147819.81;5112592;28;20199;-47
2023/05/10 04:31:03;;;;;;;16.03;9.33;;;;;;;10.87;100.00;147819.81;5112281;28;20268;-47
2023/05/10 04:33:30;;;;;;;10.97;8.67;;;;;;;10.91;100.00;147829.91;5112237;28;20222;-47
2023/05/10 04:35:59;;;;;;;9.93;8.67;;;;;;;10.85;100.00;147816.03;5112340;28;20285;-47
2023/05/10 04:38:26;;;;;;;9.60;8.60;;;;;;;10.74;100.00;147788.38;5112153;28;20199;-46
2023/05/10 04:40:53;;;;;;;9.13;8.10;;;;;;;10.77;100.00;147795.94;5112010;28;20562;-46
2023/05/10 04:43:21;;;;;;;11.53;8.73;;;;;;;10.72;100.00;147783.34;5112271;28;20303;-49
2023/05/10 04:45:48;;;;;;;12.40;8.60;;;;;;;10.69;100.00;147775.81;5112302;28;20195;-47
2023/05/10 04:48:14;;;;;;;8.97;7.93;;;;;;;10.67;100.00;147769.53;5112196;28;20601;-48
2023/05/10 04:50:41;;;;;;;13.63;8.17;;;;;;;10.72;100.00;147782.13;5112295;28;20198;-46
2023/05/10 04:53:10;;;;;;;11.27;8.90;;;;;;;10.72;100.00;147783.34;5111915;28;20222;-47
2023/05/10 04:55:37;;;;;;;11.03;9.27;;;;;;;10.74;100.00;147788.38;5111935;28;20195;-46
2023/05/10 04:58:04;;;;;;;13.57;8.20;;;;;;;10.73;100.00;147784.59;5111859;28;20191;-47
2023/05/10 05:00:31;;;;;;;9.93;8.50;;;;;;;10.85;100.00;147814.78;5111728;28;20307;-50
2023/05/10 05:02:58;;;;;;;10.67;8.50;;;;;;;10.95;100.00;147838.72;5111484;28;20226;-47
2023/05/10 05:05:25;;;;;;;13.77;8.10;;;;;;;11.02;100.00;147856.31;5111417;28;20692;-48
2023/05/10 05:07:51;;;;;;;11.10;7.73;;;;;;;11.02;100.00;147857.56;5110854;28;20298;-47
2023/05/10 05:10:20;;;;;;;8.13;7.37;;;;;;;11.04;100.00;147862.59;5111204;27;20586;-48
2023/05/10 05:12:47;;;;;;;9.90;7.37;;;;;;;11.10;100.00;147876.41;5111806;28;20586;-49
2023/05/10 05:15:15;;;;;;;11.90;7.20;;;;;;;11.23;100.00;147909.13;5111337;28;20225;-47
2023/05/10 05:17:42;;;;;;;10.43;7.97;;;;;;;11.42;100.00;147955.66;5111401;28;20201;-47
2023/05/10 05:20:09;;;;;;;7.80;7.00;;;;;;;11.49;100.00;147974.56;5111555;28;20763;-49
2023/05/10 05:22:37;;;;;;;13.10;7.27;;;;;;;11.59;100.00;147999.72;5111294;28;20209;-47
2023/05/10 05:25:04;;;;;;;9.23;7.60;;;;;;;11.69;100.00;148023.63;5111640;28;20190;-46
2023/05/10 05:27:33;;;;;;;7.23;6.53;;;;;;;11.75;100.00;148037.47;5111460;28;20201;-47
2023/05/10 05:30:00;;;;;;;7.50;6.67;;;;;;;11.69;100.00;148023.63;5111483;28;20676;-47
2023/05/10 05:32:27;;;;;;;9.37;7.17;;;;;;;11.49;100.00;147974.56;5105519;28;20221;-47
2023/05/10 05:34:54;;;;;;;9.30;6.20;;;;;;;11.46;100.00;147967.00;5109841;28;20226;-48
2023/05/10 05:37:22;;;;;;;9.13;6.80;;;;;;;11.44;100.00;147961.97;5110996;28;20596;-47
2023/05/10 05:39:49;;;;;;;7.77;7.00;;;;;;;11.43;100.00;147958.19;5110520;28;20218;-47
2023/05/10 05:42:18;;;;;;;8.43;6.90;;;;;;;11.47;100.00;147968.28;5109071;28;20209;-47
2023/05/10 05:44:46;;;;;;;8.17;7.47;;;;;;;11.57;100.00;147993.44;5109560;28;20562;-47
2023/05/10 05:47:13;;;;;;;15.40;7.50;;;;;;;11.56;100.00;147992.19;5109860;28;20642;-48
2023/05/10 05:49:40;;;;;;;7.43;6.73;;;;;;;11.71;100.00;148027.41;5109632;28;20662;-48
2023/05/10 05:52:07;;;;;;;8.67;6.13;;;;;;;11.60;100.00;148002.25;5110044;28;20194;-50
2023/05/10 05:54:35;;;;;;;7.67;6.90;;;;;;;11.53;100.00;147984.63;5109787;28;20228;-48
2023/05/10 05:57:02;;;;;;;11.70;6.53;;;;;;;11.44;100.00;147961.97;5109860;28;20190;-48
2023/05/10 05:59:29;;;;;;;9.27;6.53;;;;;;;11.43;100.00;147959.44;5109941;28;20194;-49
2023/05/10 06:01:57;;;;;;;10.90;8.10;;;;;;;11.44;100.00;147961.97;5109670;28;20194;-48
2023/05/10 06:04:24;;;;;;;7.20;6.43;;;;;;;11.43;100.00;147958.19;5068919;28;20211;-48
2023/05/10 06:06:51;;;;;;;9.40;7.37;;;;;;;11.49;100.00;147974.56;5069694;28;20675;-48
2023/05/10 06:09:18;;;;;;;9.93;7.10;;;;;;;11.51;100.00;147979.56;5063227;28;20583;-50
2023/05/10 06:11:46;;;;;;;8.47;6.50;;;;;;;11.47;100.00;147969.53;5066198;28;20198;-48
2023/05/10 06:14:13;;;;;;;10.17;7.30;;;;;;;11.50;100.00;147977.09;5067508;28;20611;-50
2023/05/10 06:16:40;;;;;;;10.03;7.60;;;;;;;11.61;100.00;148004.78;5067636;28;20203;-49
2023/05/10 06:19:08;;;;;;;8.50;6.83;;;;;;;11.70;100.00;148026.16;5067313;28;20200;-49
2023/05/10 06:21:35;;;;;;;7.67;6.87;;;;;;;11.80;100.00;148050.13;5067857;28;20188;-49
2023/05/10 06:24:02;;;;;;;6.87;6.10;;;;;;;11.87;100.00;148067.72;5067654;28;20206;-49
2023/05/10 06:26:29;;;;;;;10.83;8.10;;;;;;;11.99;100.00;148097.94;5067810;28;20250;-49
2023/05/10 06:28:56;;;;;;;13.10;8.13;;;;;;;12.04;100.00;148110.53;5064777;28;20666;-49
2023/05/10 06:31:23;;;;;;;12.60;7.70;;;;;;;12.10;100.00;148124.38;5067609;28;20290;-49
2023/05/10 06:33:50;;;;;;;10.83;7.30;;;;;;;12.11;100.00;148128.16;5067678;28;20710;-48
2023/05/10 06:36:18;;;;;;;8.03;6.23;;;;;;;12.12;100.00;148130.66;5064939;28;20279;-48
2023/05/10 06:38:46;;;;;;;15.60;6.10;;;;;;;12.15;100.00;148138.22;5067640;28;20198;-49
2023/05/10 06:41:13;;;;;;;10.73;7.63;;;;;;;12.26;100.00;148165.94;5067204;28;20226;-49
2023/05/10 06:43:41;;;;;;;6.73;5.80;;;;;;;12.25;100.00;148163.41;5067310;28;20218;-47
2023/05/10 06:46:08;;;;;;;6.77;6.07;;;;;;;12.19;100.00;148148.28;5067288;28;20629;-46
2023/05/10 06:48:35;;;;;;;14.80;7.37;;;;;;;12.21;100.00;148153.31;5067275;28;20188;-47
2023/05/10 06:51:02;;;;;;;12.53;6.47;;;;;;;12.29;100.00;148172.25;5067739;28;20573;-47
2023/05/10 06:53:30;;;;;;;10.10;7.70;;;;;;;12.39;100.00;148197.41;5067290;28;20188;-46
2023/05/10 06:55:57;;;;;;;8.63;7.23;;;;;;;12.48;100.00;148220.06;5064676;28;20192;-47
2023/05/10 06:58:24;;;;;;;7.23;6.50;;;;;;;12.44;100.00;148208.72;5067311;28;20196;-48
2023/05/10 07:00:51;;;;;;;8.00;6.47;;;;;;;12.44;100.00;148208.72;5067663;28;20200;-50
2023/05/10 07:03:18;;;;;;;10.57;6.80;;;;;;;12.55;100.00;148236.41;5092326;28;20214;-48
2023/05/10 07:05:45;;;;;;;7.27;6.60;;;;;;;12.51;100.00;148226.38;5111715;28;20633;-47
2023/05/10 07:08:13;;;;;;;9.03;6.50;;;;;;;12.38;100.00;148193.63;5111397;28;20202;-45
2023/05/10 07:10:41;;;;;;;7.37;6.57;;;;;;;12.45;100.00;148211.25;5111504;28;20194;-47
2023/05/10 07:13:08;;;;;;;7.17;6.60;;;;;;;12.47;100.00;148216.28;5111020;28;20733;-46
2023/05/10 07:15:35;;;;;;;8.20;6.20;;;;;;;12.64;100.00;148260.34;5111036;28;20210;-49
2023/05/10 07:18:02;;;;;;;7.07;6.50;;;;;;;12.71;100.00;148278.00;5111606;28;20205;-51
2023/05/10 07:20:29;;;;;;;5.97;5.37;;;;;;;12.74;100.00;148284.31;5109157;28;20217;-49
2023/05/10 07:22:56;;;;;;;8.87;6.50;;;;;;;12.88;100.00;148319.53;5111943;28;20225;-51
2023/05/10 07:25:23;;;;;;;10.13;6.03;;;;;;;13.04;100.00;148358.63;5112226;28;20249;-48
2023/05/10 07:27:51;;;;;;;7.97;6.50;;;;;;;13.19;100.00;148395.22;5111162;28;20218;-47
2023/05/10 07:30:18;;;;;;;7.90;5.40;;;;;;;13.21;100.00;148401.47;5109381;28;20615;-48
2023/05/10 07:32:45;;;;;;;5.33;4.83;;;;;;;12.95;100.00;148335.94;5111966;28;20845;-46
2023/05/10 07:35:12;;;;;;;6.83;6.20;;;;;;;12.97;100.00;148342.25;5111607;28;20237;-48
2023/05/10 07:37:39;;;;;;;9.37;6.23;;;;;;;13.29;100.00;148420.41;5111797;28;20613;-49
2023/05/10 07:40:07;;;;;;;11.23;6.50;;;;;;;13.68;100.00;148517.41;5111505;28;20652;-49
2023/05/10 07:42:34;;;;;;;10.00;5.73;;;;;;;13.80;100.00;148547.69;5110493;28;20362;-49
2023/05/10 07:45:03;;;;;;;11.40;5.87;;;;;;;14.09;100.00;148619.56;5112095;28;20686;-49
2023/05/10 07:47:29;;;;;;;7.03;5.67;;;;;;;14.47;100.00;148714.16;5112848;28;20230;-50
2023/05/10 07:49:56;;;;;;;9.60;5.47;;;;;;;14.75;100.00;148783.53;5112066;28;20763;-49
2023/05/10 07:52:23;;;;;;;6.97;4.60;;;;;;;14.80;100.00;148797.41;5112977;28;20222;-51
2023/05/10 07:54:50;;;;;;;5.43;4.97;;;;;;;15.32;100.00;148924.84;5112733;28;20234;-49
2023/05/10 07:57:18;;;;;;;5.50;5.00;;;;;;;15.13;99.05;148879.41;5110767;28;20223;-49
2023/05/10 07:59:45;;;;;;;6.83;4.97;;;;;;;15.46;97.92;148961.44;5111399;28;20566;-49
2023/05/10 08:02:14;;;;;;;6.83;4.60;;;;;;;15.27;95.60;148914.75;5108356;28;20228;-49
2023/05/10 08:04:40;;;;;;;7.87;5.13;;;;;;;14.78;97.34;148792.38;5111003;28;20195;-48
2023/05/10 08:07:08;;;;;;;5.30;4.90;;;;;;;14.81;98.97;148798.66;5110950;28;20197;-48
2023/05/10 08:09:35;;;;;;;4.93;4.53;;;;;;;15.05;99.87;148859.22;5112293;28;20203;-48
2023/05/10 08:12:02;;;;;;;6.63;5.43;;;;;;;15.06;98.77;148861.75;5112100;28;20449;-49
2023/05/10 08:14:30;;;;;;;8.30;5.30;;;;;;;15.05;98.79;148857.97;5112209;28;20309;-49
2023/05/10 08:16:57;;;;;;;7.73;5.40;;;;;;;14.78;99.41;148791.13;5112812;28;20194;-47
2023/05/10 08:19:25;;;;;;;6.30;5.30;;;;;;;14.74;100.00;148781.03;5111838;28;20282;-47
2023/05/10 08:21:55;;;;;;;6.73;5.20;;;;;;;14.68;100.00;148767.13;5111937;28;20277;-48
2023/05/10 08:24:22;;;;;;;8.67;5.27;;;;;;;14.71;100.00;148773.44;5112059;28;20190;-51
2023/05/10 08:26:49;;;;;;;7.30;5.13;;;;;;;14.67;100.00;148763.38;5111553;28;20293;-48
2023/05/10 08:29:16;;;;;;;7.67;4.90;;;;;;;14.64;99.32;148755.78;5112056;28;20195;-47
2023/05/10 08:31:43;;;;;;;4.97;4.40;;;;;;;14.53;98.84;148730.56;5110688;28;20226;-51
2023/05/10 08:34:10;;;;;;;5.93;4.97;;;;;;;14.51;98.57;148725.53;5112021;28;20613;-48
2023/05/10 08:36:38;;;;;;;5.63;4.93;;;;;;;14.18;100.00;148642.25;5112294;28;20198;-50
2023/05/10 08:39:05;;;;;;;5.03;4.63;;;;;;;14.37;100.00;148690.16;5112281;28;20194;-51
2023/05/10 08:41:34;;;;;;;5.67;5.10;;;;;;;14.31;100.00;148675.03;5112144;28;20197;-51
2023/05/10 08:44:06;;;;;;;6.13;5.53;;;;;;;14.24;99.63;148656.09;5113199;28;20276;-49
2023/05/10 08:46:36;;;;;;;6.80;4.97;;;;;;;14.24;99.88;148656.09;5112213;28;20195;-50
2023/05/10 08:49:04;;;;;;;5.47;4.97;;;;;;;14.46;100.00;148712.88;5111969;28;20670;-49
2023/05/10 08:51:37;;;;;;;7.13;4.53;;;;;;;14.38;97.34;148692.69;5112240;28;20295;-47
2023/05/10 08:54:05;;;;;;;9.47;5.47;;;;;;;14.45;97.12;148710.38;5112149;28;20198;-48
2023/05/10 08:56:33;;;;;;;6.77;5.20;;;;;;;14.44;98.17;148706.63;5111903;28;20202;-48
2023/05/10 08:59:00;;;;;;;6.07;4.53;;;;;;;14.58;96.51;148740.63;5111998;28;20237;-47
2023/05/10 09:01:28;;;;;;;6.37;5.00;;;;;;;14.73;95.70;148778.50;5111895;28;20198;-51
2023/05/10 09:03:55;;;;;;;4.77;4.47;;;;;;;14.84;95.56;148806.25;5111592;28;20261;-48
2023/05/10 09:06:23;;;;;;;5.37;4.53;;;;;;;14.72;95.80;148775.97;5112034;28;20273;-50
2023/05/10 09:08:50;;;;;;;9.47;5.43;;;;;;;14.77;96.99;148788.59;5111753;28;20670;-51
2023/05/10 09:11:19;;;;;;;6.23;4.80;;;;;;;14.64;95.39;148755.78;5091511;28;20219;-50
2023/05/10 09:13:47;;;;;;;8.47;5.70;;;;;;;14.66;96.23;148762.13;5090743;28;20225;-48
2023/05/10 09:16:14;;;;;;;8.37;5.80;;;;;;;14.80;96.70;148797.41;5090702;28;20233;-48
2023/05/10 09:18:40;;;;;;;10.33;5.60;;;;;;;14.85;96.45;148810.03;5090304;28;20223;-50
2023/05/10 09:21:08;;;;;;;7.60;5.60;;;;;;;15.00;97.02;148846.63;5090873;28;20223;-50
2023/05/10 09:23:35;;;;;;;10.73;5.70;;;;;;;15.09;95.17;148868.06;5096295;28;20230;-49
2023/05/10 09:26:05;;;;;;;5.80;5.20;;;;;;;15.09;95.01;148869.34;5109132;28;20619;-51
2023/05/10 09:28:35;;;;;;;6.97;5.47;;;;;;;15.13;95.37;148879.41;5109685;28;20194;-49
2023/05/10 09:31:02;;;;;;;7.30;5.33;;;;;;;14.97;95.50;148837.78;5110293;28;20198;-49
2023/05/10 09:33:29;;;;;;;5.07;4.67;;;;;;;15.01;95.18;148847.91;5110875;28;20213;-48
2023/05/10 09:35:56;;;;;;;6.67;5.70;;;;;;;15.04;94.18;148855.44;5100169;28;20260;-51
2023/05/10 09:38:23;;;;;;;5.37;4.73;;;;;;;15.18;95.18;148892.03;5108293;28;20704;-50
2023/05/10 09:40:55;;;;;;;5.00;4.60;;;;;;;15.13;94.72;148878.13;5109846;28;20194;-48
2023/05/10 09:43:22;;;;;;;8.00;5.10;;;;;;;15.21;94.93;148898.34;5110257;28;20201;-50
2023/05/10 09:45:51;;;;;;;5.63;5.00;;;;;;;15.17;93.88;148888.25;5111089;28;20612;-48
2023/05/10 09:48:17;;;;;;;7.03;5.20;;;;;;;15.37;93.72;148938.72;5098032;28;20222;-47
2023/05/10 09:50:44;;;;;;;5.50;5.10;;;;;;;15.29;93.18;148918.53;5090229;28;20214;-48
2023/05/10 09:53:15;;;;;;;10.43;5.23;;;;;;;15.50;92.17;148970.28;5104177;28;20213;-50
2023/05/10 09:55:44;;;;;;;9.63;5.13;;;;;;;15.74;90.78;149030.91;5110686;28;20214;-50
2023/05/10 09:58:12;;;;;;;6.70;4.80;;;;;;;15.72;90.83;149025.84;5106711;28;20202;-46
2023/05/10 10:00:41;;;;;;;5.20;4.80;;;;;;;15.77;91.38;149038.50;5106844;28;20297;-47
2023/05/10 10:03:14;;;;;;;5.60;4.60;;;;;;;15.94;89.33;149081.41;5109206;28;20217;-49
2023/05/10 10:05:42;;;;;;;5.73;5.10;;;;;;;16.15;88.87;149131.91;5108876;28;20183;-47
2023/05/10 10:08:09;;;;;;;8.57;5.03;;;;;;;16.20;89.86;149145.81;5109112;28;20717;-49
2023/05/10 10:10:36;;;;;;;5.73;5.23;;;;;;;16.39;89.73;149192.53;5109608;28;20256;-49
2023/05/10 10:13:04;;;;;;;5.73;5.13;;;;;;;16.79;89.55;149292.38;5109645;28;20695;-47
2023/05/10 10:15:31;;;;;;;4.97;4.57;;;;;;;16.87;87.88;149311.31;5108277;28;20218;-47
2023/05/10 10:17:59;;;;;;;7.27;4.80;;;;;;;16.45;88.32;149206.44;5107789;28;20190;-49
2023/05/10 10:20:28;;;;;;;5.30;4.90;;;;;;;16.42;89.18;149200.13;5107798;28;20195;-49
2023/05/10 10:22:55;;;;;;;5.10;4.70;;;;;;;16.04;89.52;149104.13;5107868;28;20191;-46
2023/05/10 10:25:22;;;;;;;5.70;4.90;;;;;;;16.15;91.15;149131.91;5108153;28;20190;-48
2023/05/10 10:28:05;;;;;;;5.70;5.10;;;;;;;16.17;86.50;149138.22;5108712;28;20194;-49
2023/05/10 10:30:37;;;;;;;7.40;5.00;;;;;;;16.09;85.63;149118.03;5109073;28;20197;-50
2023/05/10 10:33:46;;;;;;;5.27;4.90;;;;;;;16.01;85.03;149097.84;5107871;28;20657;-46
2023/05/10 10:36:15;;;;;;;7.93;5.53;;;;;;;16.38;85.93;149190.00;5087340;28;20218;-47
2023/05/10 10:39:00;;;;;;;7.17;4.80;;;;;;;16.47;82.08;149211.50;5110425;28;20190;-47
2023/05/10 10:41:32;;;;;;;6.17;5.57;;;;;;;16.33;83.16;149177.41;5111799;28;20194;-47
2023/05/10 10:44:36;;;;;;;7.33;5.40;;;;;;;16.33;81.54;149177.41;5110238;28;20673;-47
2023/05/10 10:47:29;;;;;;;6.10;5.57;;;;;;;16.40;81.15;149193.78;5100225;28;20599;-45
2023/05/10 10:50:07;;;;;;;6.63;5.67;;;;;;;16.70;79.30;149270.88;5111378;28;20259;-50
2023/05/10 10:52:36;;;;;;;5.43;5.00;;;;;;;16.63;77.16;149253.22;5111173;28;20274;-48
2023/05/10 10:55:06;;;;;;;7.20;6.03;;;;;;;16.61;77.13;149248.09;5111917;28;20580;-47
2023/05/10 10:57:43;;;;;;;5.57;5.20;;;;;;;16.50;77.43;149219.03;5111570;28;20191;-47
2023/05/10 11:00:20;;;;;;;5.60;5.20;;;;;;;16.81;74.97;149296.19;5111076;28;20584;-47
2023/05/10 11:02:49;;;;;;;6.10;5.50;;;;;;;17.14;73.81;149379.56;5110673;28;20238;-48
2023/05/10 11:05:46;;;;;;;6.20;5.70;;;;;;;16.95;75.67;149332.78;5111720;28;20638;-47
2023/05/10 11:08:19;;;;;;;6.00;5.60;;;;;;;16.76;76.64;149283.53;5110581;28;20209;-50
2023/05/10 11:11:03;;;;;;;6.13;5.73;;;;;;;16.72;77.63;149274.69;5110498;28;20201;-47
2023/05/10 11:13:31;;;;;;;6.73;6.07;;;;;;;16.45;77.86;149206.44;5111086;28;20224;-48
2023/05/10 11:15:58;;;;;;;7.47;6.67;;;;;;;16.47;78.13;149211.50;5111586;28;20210;-49
2023/05/10 11:18:27;;;;;;;8.67;6.30;;;;;;;16.53;79.25;149227.91;5111386;28;20692;-47
2023/05/10 11:20:58;;;;;;;8.70;6.13;;;;;;;16.63;78.30;149253.22;5109033;28;20637;-47
2023/05/10 11:23:31;;;;;;;6.13;5.60;;;;;;;16.55;77.06;149232.97;5110797;28;20645;-47
2023/05/10 11:26:00;;;;;;;8.03;5.90;;;;;;;16.40;75.59;149193.78;5111211;28;20186;-48